Airfield :
LOGIN :

Register | Disclaimer

   EN    FR    IT 

 










Legend :    VFR   Marginal VFR   IFR   Intensive IFR   Very Intensive IFR
Visi :
Ceiling :
>= 8 km
>= 3000ft
5 to 8 km
1000 to 3000 ft
1500m to 5 km
500 to 1000 ft
800 to 1500m
200 to 500 ft
< 800m
< 200 ft
Symbols :   Thunderstorms  Fog  Heavy snow  Heavy precipitations  Wind > 20 kt
SIGMETs :     Misc.  Thunderstorms  Icing  Turbulence  Mountain Waves  Volcanic Ashes






- Airport Elevation : 308 ft
- IATA code : MHG


EDFM - Mannheim-City

CURRENT METAR :
  • 161220Z 22009KT 180V270 9999 SCT044 25/14 Q1015

EXPIRED METARs :
  • 161150Z 22009KT 190V260 9999 SCT044 24/14 Q1015
  • 161120Z 22010KT 190V270 CAVOK 24/14 Q1015
  • 161050Z 22011KT 200V260 9999 FEW037 23/14 Q1015
  • 161020Z 19011KT 160V220 9999 FEW035 23/15 Q1015
  • 160950Z 20010KT 9999 SCT036 BKN049 23/15 Q1015
  • 160920Z 22009KT 180V250 9999 NSC 23/14 Q1015
  • 160850Z 24008KT 210V280 9999 FEW035 22/15 Q1015
  • 160820Z 23008KT 180V270 9999 NSC 22/14 Q1015
  • 160750Z 22007KT 180V260 9999 NSC 21/15 Q1015
  • 160720Z 21007KT 160V250 9999 NSC 21/16 Q1015

TAF TAF EDFM
Valid from the 16 at 12:00 until the 16 at 21:00 UTC


161100Z 1612/1621 23012KT 9999 SCT040
TEMPO 1612/1617 23015G25KT
BECMG 1617/1619 24006KT



MET'MAP, your aeronautical weather chart ! - Copyright ORBIFLY December 2007 - Disclaimer

ORBIFLY MET'MAP TEAM :

Programming & Development : Alexandra Zaïnal
Original concept : Baudouin d'Aumeries
Technical & hardware support : Manuel Goepfert
Assistance : Marc-Olivier Méhu




SOURCES & CREDITS :

   NOAA